sensor_id;sensor_type;location;lat;lon;timestamp;P1;durP1;ratioP1;P2;durP2;ratioP2
23608;SDS011;11982;50.810;4.442;2023-04-01T00:00:21;15.82;;;3.80;;
23608;SDS011;11982;50.810;4.442;2023-04-01T00:02:47;20.17;;;3.45;;
23608;SDS011;11982;50.810;4.442;2023-04-01T00:05:13;17.63;;;2.85;;
23608;SDS011;11982;50.810;4.442;2023-04-01T00:07:39;17.60;;;3.70;;
23608;SDS011;11982;50.810;4.442;2023-04-01T00:10:06;14.98;;;2.78;;
23608;SDS011;11982;50.810;4.442;2023-04-01T00:12:33;18.75;;;3.85;;
23608;SDS011;11982;50.810;4.442;2023-04-01T00:14:59;21.08;;;4.05;;
23608;SDS011;11982;50.810;4.442;2023-04-01T00:17:26;17.48;;;3.45;;
23608;SDS011;11982;50.810;4.442;2023-04-01T00:19:54;18.73;;;3.35;;
23608;SDS011;11982;50.810;4.442;2023-04-01T00:22:20;16.98;;;3.60;;
23608;SDS011;11982;50.810;4.442;2023-04-01T00:24:47;13.55;;;3.03;;
23608;SDS011;11982;50.810;4.442;2023-04-01T00:27:12;13.10;;;3.13;;
23608;SDS011;11982;50.810;4.442;2023-04-01T00:29:41;10.18;;;2.72;;
23608;SDS011;11982;50.810;4.442;2023-04-01T00:32:07;13.27;;;3.47;;
23608;SDS011;11982;50.810;4.442;2023-04-01T00:34:33;14.93;;;3.00;;
23608;SDS011;11982;50.810;4.442;2023-04-01T00:36:58;11.48;;;3.05;;
23608;SDS011;11982;50.810;4.442;2023-04-01T00:39:25;12.15;;;2.90;;
23608;SDS011;11982;50.810;4.442;2023-04-01T00:41:53;9.98;;;2.83;;
23608;SDS011;11982;50.810;4.442;2023-04-01T00:44:22;10.73;;;2.65;;
23608;SDS011;11982;50.810;4.442;2023-04-01T00:46:49;11.70;;;3.03;;
23608;SDS011;11982;50.810;4.442;2023-04-01T00:49:17;10.80;;;2.20;;
23608;SDS011;11982;50.810;4.442;2023-04-01T00:51:46;9.30;;;3.00;;
23608;SDS011;11982;50.810;4.442;2023-04-01T00:54:13;9.77;;;2.40;;
23608;SDS011;11982;50.810;4.442;2023-04-01T00:56:48;11.98;;;2.72;;
23608;SDS011;11982;50.810;4.442;2023-04-01T00:59:21;10.60;;;2.90;;
23608;SDS011;11982;50.810;4.442;2023-04-01T01:01:51;8.93;;;3.25;;
23608;SDS011;11982;50.810;4.442;2023-04-01T01:04:25;11.32;;;3.78;;
23608;SDS011;11982;50.810;4.442;2023-04-01T01:07:05;8.27;;;3.72;;
23608;SDS011;11982;50.810;4.442;2023-04-01T01:15:25;7.43;;;2.88;;
23608;SDS011;11982;50.810;4.442;2023-04-01T01:36:45;9.50;;;4.38;;
23608;SDS011;11982;50.810;4.442;2023-04-01T01:39:17;9.45;;;4.82;;
23608;SDS011;11982;50.810;4.442;2023-04-01T01:41:45;12.65;;;5.13;;
23608;SDS011;11982;50.810;4.442;2023-04-01T01:44:14;9.73;;;4.50;;
23608;SDS011;11982;50.810;4.442;2023-04-01T01:46:41;11.65;;;4.32;;
23608;SDS011;11982;50.810;4.442;2023-04-01T01:49:09;17.17;;;4.93;;
23608;SDS011;11982;50.810;4.442;2023-04-01T01:51:36;10.80;;;6.38;;
23608;SDS011;11982;50.810;4.442;2023-04-01T01:54:04;9.90;;;4.90;;
23608;SDS011;11982;50.810;4.442;2023-04-01T01:56:29;11.23;;;5.35;;
23608;SDS011;11982;50.810;4.442;2023-04-01T01:59:00;13.60;;;5.20;;
23608;SDS011;11982;50.810;4.442;2023-04-01T02:01:31;12.85;;;5.63;;
23608;SDS011;11982;50.810;4.442;2023-04-01T02:04:00;14.82;;;6.32;;
23608;SDS011;11982;50.810;4.442;2023-04-01T02:06:28;16.17;;;7.15;;
23608;SDS011;11982;50.810;4.442;2023-04-01T02:08:57;12.98;;;7.85;;
23608;SDS011;11982;50.810;4.442;2023-04-01T02:11:36;21.35;;;7.65;;
23608;SDS011;11982;50.810;4.442;2023-04-01T02:14:11;21.63;;;8.52;;
23608;SDS011;11982;50.810;4.442;2023-04-01T02:16:43;19.45;;;8.70;;
23608;SDS011;11982;50.810;4.442;2023-04-01T02:19:45;19.55;;;8.55;;
23608;SDS011;11982;50.810;4.442;2023-04-01T02:22:22;19.00;;;8.57;;
23608;SDS011;11982;50.810;4.442;2023-04-01T02:24:52;15.35;;;7.43;;
23608;SDS011;11982;50.810;4.442;2023-04-01T02:27:21;19.45;;;8.30;;
23608;SDS011;11982;50.810;4.442;2023-04-01T02:29:48;20.55;;;7.80;;
23608;SDS011;11982;50.810;4.442;2023-04-01T02:32:14;18.35;;;7.88;;
23608;SDS011;11982;50.810;4.442;2023-04-01T02:34:42;22.45;;;8.70;;
23608;SDS011;11982;50.810;4.442;2023-04-01T02:37:08;18.33;;;6.78;;
23608;SDS011;11982;50.810;4.442;2023-04-01T02:39:35;18.92;;;8.00;;
23608;SDS011;11982;50.810;4.442;2023-04-01T02:42:01;18.85;;;8.32;;
23608;SDS011;11982;50.810;4.442;2023-04-01T02:44:27;19.23;;;7.97;;
23608;SDS011;11982;50.810;4.442;2023-04-01T02:46:52;16.23;;;7.95;;
23608;SDS011;11982;50.810;4.442;2023-04-01T02:49:18;22.15;;;8.25;;
23608;SDS011;11982;50.810;4.442;2023-04-01T02:51:44;23.17;;;8.02;;
23608;SDS011;11982;50.810;4.442;2023-04-01T02:54:10;19.55;;;7.32;;
23608;SDS011;11982;50.810;4.442;2023-04-01T02:56:35;18.90;;;8.02;;
23608;SDS011;11982;50.810;4.442;2023-04-01T02:59:01;16.52;;;7.75;;
23608;SDS011;11982;50.810;4.442;2023-04-01T03:01:27;20.48;;;7.53;;
23608;SDS011;11982;50.810;4.442;2023-04-01T03:03:53;20.20;;;7.78;;
23608;SDS011;11982;50.810;4.442;2023-04-01T03:06:18;19.15;;;8.77;;
23608;SDS011;11982;50.810;4.442;2023-04-01T03:08:44;19.70;;;7.55;;
23608;SDS011;11982;50.810;4.442;2023-04-01T03:11:10;20.70;;;8.57;;
23608;SDS011;11982;50.810;4.442;2023-04-01T03:13:36;19.88;;;9.02;;
23608;SDS011;11982;50.810;4.442;2023-04-01T03:16:02;21.80;;;9.20;;
23608;SDS011;11982;50.810;4.442;2023-04-01T03:18:28;22.10;;;9.07;;
23608;SDS011;11982;50.810;4.442;2023-04-01T03:20:54;18.15;;;7.68;;
23608;SDS011;11982;50.810;4.442;2023-04-01T03:23:20;25.60;;;8.57;;
23608;SDS011;11982;50.810;4.442;2023-04-01T03:25:46;20.35;;;9.50;;
23608;SDS011;11982;50.810;4.442;2023-04-01T03:28:13;28.02;;;10.88;;
23608;SDS011;11982;50.810;4.442;2023-04-01T03:30:39;25.38;;;10.65;;
23608;SDS011;11982;50.810;4.442;2023-04-01T03:33:05;23.40;;;11.70;;
23608;SDS011;11982;50.810;4.442;2023-04-01T03:35:30;29.60;;;12.50;;
23608;SDS011;11982;50.810;4.442;2023-04-01T03:37:56;19.90;;;10.25;;
23608;SDS011;11982;50.810;4.442;2023-04-01T03:40:22;23.52;;;10.27;;
23608;SDS011;11982;50.810;4.442;2023-04-01T03:42:48;30.20;;;12.35;;
23608;SDS011;11982;50.810;4.442;2023-04-01T03:45:14;31.98;;;13.57;;
23608;SDS011;11982;50.810;4.442;2023-04-01T03:47:40;29.42;;;13.10;;
23608;SDS011;11982;50.810;4.442;2023-04-01T03:50:06;35.92;;;14.05;;
23608;SDS011;11982;50.810;4.442;2023-04-01T03:52:33;33.38;;;11.68;;
23608;SDS011;11982;50.810;4.442;2023-04-01T03:55:00;33.70;;;11.80;;
23608;SDS011;11982;50.810;4.442;2023-04-01T03:57:26;32.45;;;12.23;;
23608;SDS011;11982;50.810;4.442;2023-04-01T03:59:52;31.85;;;11.75;;
23608;SDS011;11982;50.810;4.442;2023-04-01T04:02:18;34.70;;;12.93;;
23608;SDS011;11982;50.810;4.442;2023-04-01T04:04:44;36.30;;;13.75;;
23608;SDS011;11982;50.810;4.442;2023-04-01T04:07:11;35.85;;;13.63;;
23608;SDS011;11982;50.810;4.442;2023-04-01T04:09:37;27.52;;;12.18;;
23608;SDS011;11982;50.810;4.442;2023-04-01T04:12:02;34.88;;;12.57;;
23608;SDS011;11982;50.810;4.442;2023-04-01T04:14:30;33.75;;;12.15;;
23608;SDS011;11982;50.810;4.442;2023-04-01T04:16:56;28.00;;;11.07;;
23608;SDS011;11982;50.810;4.442;2023-04-01T04:19:22;31.45;;;13.05;;
23608;SDS011;11982;50.810;4.442;2023-04-01T04:21:47;24.63;;;11.65;;
23608;SDS011;11982;50.810;4.442;2023-04-01T04:24:13;31.65;;;11.45;;
23608;SDS011;11982;50.810;4.442;2023-04-01T04:26:39;29.58;;;11.52;;
23608;SDS011;11982;50.810;4.442;2023-04-01T04:29:05;34.78;;;12.85;;
23608;SDS011;11982;50.810;4.442;2023-04-01T04:31:30;24.02;;;11.35;;
23608;SDS011;11982;50.810;4.442;2023-04-01T04:33:56;24.30;;;10.02;;
23608;SDS011;11982;50.810;4.442;2023-04-01T04:36:25;22.17;;;10.13;;
23608;SDS011;11982;50.810;4.442;2023-04-01T04:38:51;19.10;;;9.07;;
23608;SDS011;11982;50.810;4.442;2023-04-01T04:41:17;21.30;;;9.20;;
23608;SDS011;11982;50.810;4.442;2023-04-01T04:43:48;18.77;;;9.82;;
23608;SDS011;11982;50.810;4.442;2023-04-01T04:46:15;19.70;;;8.52;;
23608;SDS011;11982;50.810;4.442;2023-04-01T04:48:41;22.65;;;10.93;;
23608;SDS011;11982;50.810;4.442;2023-04-01T04:51:11;18.98;;;9.68;;
23608;SDS011;11982;50.810;4.442;2023-04-01T04:53:42;20.20;;;9.05;;
23608;SDS011;11982;50.810;4.442;2023-04-01T04:56:08;18.92;;;9.65;;
23608;SDS011;11982;50.810;4.442;2023-04-01T04:58:33;19.23;;;9.43;;
23608;SDS011;11982;50.810;4.442;2023-04-01T05:01:05;15.57;;;8.32;;
23608;SDS011;11982;50.810;4.442;2023-04-01T05:03:35;20.17;;;8.65;;
23608;SDS011;11982;50.810;4.442;2023-04-01T05:06:01;19.73;;;9.50;;
23608;SDS011;11982;50.810;4.442;2023-04-01T05:08:27;15.85;;;7.97;;
23608;SDS011;11982;50.810;4.442;2023-04-01T05:10:52;16.02;;;8.23;;
23608;SDS011;11982;50.810;4.442;2023-04-01T05:13:18;15.70;;;7.93;;
23608;SDS011;11982;50.810;4.442;2023-04-01T05:15:44;18.38;;;8.65;;
23608;SDS011;11982;50.810;4.442;2023-04-01T05:18:09;19.80;;;8.98;;
23608;SDS011;11982;50.810;4.442;2023-04-01T05:20:35;17.80;;;8.45;;
23608;SDS011;11982;50.810;4.442;2023-04-01T05:23:01;18.48;;;9.30;;
23608;SDS011;11982;50.810;4.442;2023-04-01T05:25:26;16.55;;;8.43;;
23608;SDS011;11982;50.810;4.442;2023-04-01T05:27:52;26.73;;;8.90;;
23608;SDS011;11982;50.810;4.442;2023-04-01T05:30:18;21.77;;;9.15;;
23608;SDS011;11982;50.810;4.442;2023-04-01T05:32:44;21.67;;;9.15;;
23608;SDS011;11982;50.810;4.442;2023-04-01T05:35:10;18.88;;;8.98;;
23608;SDS011;11982;50.810;4.442;2023-04-01T05:37:36;19.75;;;8.18;;
23608;SDS011;11982;50.810;4.442;2023-04-01T05:40:02;23.38;;;9.10;;
23608;SDS011;11982;50.810;4.442;2023-04-01T05:42:29;24.63;;;10.00;;
23608;SDS011;11982;50.810;4.442;2023-04-01T05:44:54;26.85;;;10.77;;
23608;SDS011;11982;50.810;4.442;2023-04-01T05:47:21;25.42;;;10.30;;
23608;SDS011;11982;50.810;4.442;2023-04-01T05:49:47;26.48;;;11.15;;
23608;SDS011;11982;50.810;4.442;2023-04-01T05:52:13;24.52;;;10.10;;
23608;SDS011;11982;50.810;4.442;2023-04-01T05:54:38;27.45;;;12.40;;
23608;SDS011;11982;50.810;4.442;2023-04-01T05:57:04;30.20;;;11.77;;
23608;SDS011;11982;50.810;4.442;2023-04-01T05:59:30;36.22;;;12.88;;
23608;SDS011;11982;50.810;4.442;2023-04-01T06:01:59;28.63;;;12.55;;
23608;SDS011;11982;50.810;4.442;2023-04-01T06:04:26;23.42;;;11.63;;
23608;SDS011;11982;50.810;4.442;2023-04-01T06:06:57;31.67;;;13.18;;
23608;SDS011;11982;50.810;4.442;2023-04-01T06:09:26;25.75;;;13.27;;
23608;SDS011;11982;50.810;4.442;2023-04-01T06:27:52;29.30;;;13.30;;
23608;SDS011;11982;50.810;4.442;2023-04-01T06:41:27;34.08;;;14.68;;
23608;SDS011;11982;50.810;4.442;2023-04-01T06:49:48;30.40;;;13.75;;
23608;SDS011;11982;50.810;4.442;2023-04-01T06:52:34;22.95;;;11.30;;
23608;SDS011;11982;50.810;4.442;2023-04-01T06:56:08;30.35;;;14.30;;
23608;SDS011;11982;50.810;4.442;2023-04-01T06:58:07;36.25;;;13.55;;
23608;SDS011;11982;50.810;4.442;2023-04-01T07:00:44;34.38;;;14.70;;
23608;SDS011;11982;50.810;4.442;2023-04-01T07:05:45;25.73;;;10.30;;
23608;SDS011;11982;50.810;4.442;2023-04-01T07:08:17;28.00;;;12.55;;
23608;SDS011;11982;50.810;4.442;2023-04-01T07:19:36;17.35;;;7.13;;
23608;SDS011;11982;50.810;4.442;2023-04-01T07:25:16;19.42;;;9.30;;
23608;SDS011;11982;50.810;4.442;2023-04-01T07:27:50;18.02;;;8.80;;
23608;SDS011;11982;50.810;4.442;2023-04-01T07:30:24;15.85;;;9.23;;
23608;SDS011;11982;50.810;4.442;2023-04-01T07:44:22;15.68;;;7.35;;
23608;SDS011;11982;50.810;4.442;2023-04-01T08:17:42;7.93;;;3.65;;
23608;SDS011;11982;50.810;4.442;2023-04-01T08:20:28;4.85;;;2.95;;
23608;SDS011;11982;50.810;4.442;2023-04-01T08:25:37;3.45;;;3.15;;
23608;SDS011;11982;50.810;4.442;2023-04-01T08:31:04;6.82;;;3.60;;
23608;SDS011;11982;50.810;4.442;2023-04-01T08:33:36;5.53;;;4.05;;
23608;SDS011;11982;50.810;4.442;2023-04-01T08:36:16;4.70;;;3.58;;
23608;SDS011;11982;50.810;4.442;2023-04-01T08:58:44;3.95;;;2.33;;
23608;SDS011;11982;50.810;4.442;2023-04-01T09:27:17;6.80;;;3.22;;
23608;SDS011;11982;50.810;4.442;2023-04-01T09:33:04;6.85;;;3.47;;
23608;SDS011;11982;50.810;4.442;2023-04-01T09:38:56;4.47;;;3.50;;
23608;SDS011;11982;50.810;4.442;2023-04-01T09:41:48;5.93;;;3.35;;
23608;SDS011;11982;50.810;4.442;2023-04-01T09:47:28;5.93;;;3.72;;
23608;SDS011;11982;50.810;4.442;2023-04-01T09:58:50;5.90;;;3.83;;
23608;SDS011;11982;50.810;4.442;2023-04-01T10:01:45;4.07;;;3.35;;
23608;SDS011;11982;50.810;4.442;2023-04-01T10:16:15;4.75;;;3.50;;
23608;SDS011;11982;50.810;4.442;2023-04-01T10:24:27;5.55;;;3.08;;
23608;SDS011;11982;50.810;4.442;2023-04-01T10:45:02;3.90;;;2.58;;
23608;SDS011;11982;50.810;4.442;2023-04-01T10:56:39;4.15;;;2.50;;
23608;SDS011;11982;50.810;4.442;2023-04-01T11:07:58;3.50;;;2.17;;
23608;SDS011;11982;50.810;4.442;2023-04-01T11:13:44;3.03;;;2.55;;
23608;SDS011;11982;50.810;4.442;2023-04-01T11:30:20;5.30;;;3.75;;
23608;SDS011;11982;50.810;4.442;2023-04-01T11:37:52;6.07;;;3.45;;
23608;SDS011;11982;50.810;4.442;2023-04-01T11:40:44;4.40;;;3.47;;
23608;SDS011;11982;50.810;4.442;2023-04-01T11:43:38;6.65;;;3.13;;
23608;SDS011;11982;50.810;4.442;2023-04-01T11:51:45;6.05;;;3.92;;
23608;SDS011;11982;50.810;4.442;2023-04-01T11:59:46;5.68;;;3.33;;
23608;SDS011;11982;50.810;4.442;2023-04-01T12:05:47;3.38;;;3.03;;
23608;SDS011;11982;50.810;4.442;2023-04-01T12:11:06;6.60;;;3.50;;
23608;SDS011;11982;50.810;4.442;2023-04-01T12:14:02;5.97;;;3.15;;
23608;SDS011;11982;50.810;4.442;2023-04-01T12:22:23;5.93;;;3.10;;
23608;SDS011;11982;50.810;4.442;2023-04-01T12:28:21;6.68;;;3.58;;
23608;SDS011;11982;50.810;4.442;2023-04-01T12:30:57;5.88;;;3.38;;
23608;SDS011;11982;50.810;4.442;2023-04-01T13:06:45;6.68;;;4.78;;
23608;SDS011;11982;50.810;4.442;2023-04-01T13:29:02;5.18;;;3.90;;
23608;SDS011;11982;50.810;4.442;2023-04-01T13:36:59;5.60;;;4.28;;
23608;SDS011;11982;50.810;4.442;2023-04-01T13:39:41;7.35;;;4.70;;
23608;SDS011;11982;50.810;4.442;2023-04-01T13:45:29;5.93;;;4.00;;
23608;SDS011;11982;50.810;4.442;2023-04-01T13:58:31;5.18;;;3.10;;
23608;SDS011;11982;50.810;4.442;2023-04-01T14:01:41;3.38;;;2.85;;
23608;SDS011;11982;50.810;4.442;2023-04-01T14:21:33;2.75;;;2.10;;
23608;SDS011;11982;50.810;4.442;2023-04-01T14:35:38;2.30;;;1.98;;
23608;SDS011;11982;50.810;4.442;2023-04-01T14:38:21;5.80;;;2.00;;
23608;SDS011;11982;50.810;4.442;2023-04-01T14:41:38;2.25;;;1.90;;
23608;SDS011;11982;50.810;4.442;2023-04-01T14:44:05;1.83;;;1.73;;
23608;SDS011;11982;50.810;4.442;2023-04-01T14:49:20;3.22;;;2.17;;
23608;SDS011;11982;50.810;4.442;2023-04-01T14:51:49;4.95;;;2.80;;
23608;SDS011;11982;50.810;4.442;2023-04-01T14:54:21;2.55;;;2.10;;
23608;SDS011;11982;50.810;4.442;2023-04-01T14:59:52;4.75;;;3.30;;
23608;SDS011;11982;50.810;4.442;2023-04-01T15:10:43;3.13;;;1.98;;
23608;SDS011;11982;50.810;4.442;2023-04-01T15:24:59;1.95;;;1.75;;
23608;SDS011;11982;50.810;4.442;2023-04-01T15:30:15;3.20;;;2.10;;
23608;SDS011;11982;50.810;4.442;2023-04-01T15:37:57;4.33;;;2.60;;
23608;SDS011;11982;50.810;4.442;2023-04-01T15:40:49;5.38;;;2.15;;
23608;SDS011;11982;50.810;4.442;2023-04-01T16:10:49;5.10;;;1.67;;
23608;SDS011;11982;50.810;4.442;2023-04-01T16:15:59;4.07;;;1.60;;
23608;SDS011;11982;50.810;4.442;2023-04-01T16:24:05;3.47;;;1.70;;
23608;SDS011;11982;50.810;4.442;2023-04-01T16:26:47;6.78;;;2.60;;
23608;SDS011;11982;50.810;4.442;2023-04-01T16:37:50;4.50;;;2.25;;
23608;SDS011;11982;50.810;4.442;2023-04-01T16:43:16;5.75;;;2.20;;
23608;SDS011;11982;50.810;4.442;2023-04-01T16:46:12;5.95;;;2.95;;
23608;SDS011;11982;50.810;4.442;2023-04-01T16:49:13;4.82;;;2.28;;
23608;SDS011;11982;50.810;4.442;2023-04-01T16:56:54;4.90;;;2.38;;
23608;SDS011;11982;50.810;4.442;2023-04-01T17:02:26;5.90;;;3.33;;
23608;SDS011;11982;50.810;4.442;2023-04-01T17:05:04;6.50;;;3.40;;
23608;SDS011;11982;50.810;4.442;2023-04-01T17:27:02;6.70;;;4.30;;
23608;SDS011;11982;50.810;4.442;2023-04-01T17:35:32;11.27;;;7.18;;
23608;SDS011;11982;50.810;4.442;2023-04-01T17:38:13;6.05;;;4.10;;
23608;SDS011;11982;50.810;4.442;2023-04-01T17:46:50;5.90;;;3.70;;
23608;SDS011;11982;50.810;4.442;2023-04-01T17:49:35;5.38;;;3.67;;
23608;SDS011;11982;50.810;4.442;2023-04-01T17:52:21;6.68;;;4.03;;
23608;SDS011;11982;50.810;4.442;2023-04-01T17:58:03;7.10;;;4.10;;
23608;SDS011;11982;50.810;4.442;2023-04-01T18:00:47;9.88;;;5.18;;
23608;SDS011;11982;50.810;4.442;2023-04-01T18:06:39;8.00;;;4.75;;
23608;SDS011;11982;50.810;4.442;2023-04-01T18:17:31;14.07;;;9.00;;
23608;SDS011;11982;50.810;4.442;2023-04-01T18:20:18;12.85;;;8.95;;
23608;SDS011;11982;50.810;4.442;2023-04-01T18:22:59;17.65;;;9.73;;
23608;SDS011;11982;50.810;4.442;2023-04-01T18:25:35;12.77;;;8.63;;
23608;SDS011;11982;50.810;4.442;2023-04-01T18:30:56;12.57;;;8.25;;
23608;SDS011;11982;50.810;4.442;2023-04-01T18:33:30;16.08;;;10.75;;
23608;SDS011;11982;50.810;4.442;2023-04-01T18:38:49;13.10;;;10.10;;
23608;SDS011;11982;50.810;4.442;2023-04-01T18:52:44;13.90;;;10.90;;
23608;SDS011;11982;50.810;4.442;2023-04-01T18:58:16;27.67;;;18.70;;
23608;SDS011;11982;50.810;4.442;2023-04-01T19:01:26;21.70;;;14.73;;
23608;SDS011;11982;50.810;4.442;2023-04-01T19:06:30;16.50;;;11.93;;
23608;SDS011;11982;50.810;4.442;2023-04-01T19:09:20;18.77;;;13.98;;
23608;SDS011;11982;50.810;4.442;2023-04-01T19:20:44;36.03;;;21.87;;
23608;SDS011;11982;50.810;4.442;2023-04-01T19:25:49;33.10;;;21.30;;
23608;SDS011;11982;50.810;4.442;2023-04-01T19:28:33;47.97;;;26.83;;
23608;SDS011;11982;50.810;4.442;2023-04-01T19:34:22;49.47;;;25.25;;
23608;SDS011;11982;50.810;4.442;2023-04-01T19:37:20;40.35;;;20.38;;
23608;SDS011;11982;50.810;4.442;2023-04-01T19:40:04;49.67;;;27.08;;
23608;SDS011;11982;50.810;4.442;2023-04-01T19:48:41;49.33;;;30.63;;
23608;SDS011;11982;50.810;4.442;2023-04-01T19:51:07;33.45;;;18.02;;
23608;SDS011;11982;50.810;4.442;2023-04-01T20:01:27;56.83;;;28.65;;
23608;SDS011;11982;50.810;4.442;2023-04-01T20:12:21;37.75;;;22.52;;
23608;SDS011;11982;50.810;4.442;2023-04-01T20:15:00;46.03;;;23.20;;
23608;SDS011;11982;50.810;4.442;2023-04-01T20:17:32;40.65;;;21.05;;
23608;SDS011;11982;50.810;4.442;2023-04-01T20:22:48;42.83;;;22.75;;
23608;SDS011;11982;50.810;4.442;2023-04-01T20:25:25;32.30;;;20.13;;
23608;SDS011;11982;50.810;4.442;2023-04-01T20:28:02;40.90;;;22.00;;
23608;SDS011;11982;50.810;4.442;2023-04-01T20:33:12;38.65;;;21.17;;
23608;SDS011;11982;50.810;4.442;2023-04-01T20:51:31;54.85;;;24.80;;
23608;SDS011;11982;50.810;4.442;2023-04-01T21:10:46;52.47;;;24.67;;
23608;SDS011;11982;50.810;4.442;2023-04-01T21:13:41;47.72;;;23.23;;
23608;SDS011;11982;50.810;4.442;2023-04-01T21:32:55;56.03;;;26.25;;
23608;SDS011;11982;50.810;4.442;2023-04-01T21:44:16;46.70;;;24.42;;
23608;SDS011;11982;50.810;4.442;2023-04-01T22:11:15;32.72;;;15.98;;
23608;SDS011;11982;50.810;4.442;2023-04-01T22:14:05;36.15;;;20.65;;
23608;SDS011;11982;50.810;4.442;2023-04-01T22:22:07;38.22;;;19.88;;
23608;SDS011;11982;50.810;4.442;2023-04-01T22:25:03;40.63;;;21.58;;
23608;SDS011;11982;50.810;4.442;2023-04-01T22:33:16;37.33;;;20.17;;
23608;SDS011;11982;50.810;4.442;2023-04-01T22:36:00;36.83;;;20.63;;
23608;SDS011;11982;50.810;4.442;2023-04-01T22:39:00;37.45;;;20.45;;
23608;SDS011;11982;50.810;4.442;2023-04-01T22:41:46;43.75;;;22.13;;
23608;SDS011;11982;50.810;4.442;2023-04-01T22:44:28;39.40;;;22.27;;
23608;SDS011;11982;50.810;4.442;2023-04-01T22:47:19;42.75;;;23.15;;
23608;SDS011;11982;50.810;4.442;2023-04-01T22:55:24;43.88;;;23.77;;
23608;SDS011;11982;50.810;4.442;2023-04-01T23:03:26;44.40;;;22.83;;
23608;SDS011;11982;50.810;4.442;2023-04-01T23:05:56;43.42;;;23.75;;
23608;SDS011;11982;50.810;4.442;2023-04-01T23:11:02;47.72;;;24.90;;
23608;SDS011;11982;50.810;4.442;2023-04-01T23:13:35;43.38;;;22.88;;
23608;SDS011;11982;50.810;4.442;2023-04-01T23:16:13;46.30;;;25.33;;
23608;SDS011;11982;50.810;4.442;2023-04-01T23:18:46;76.88;;;41.92;;
23608;SDS011;11982;50.810;4.442;2023-04-01T23:26:40;45.58;;;21.88;;
23608;SDS011;11982;50.810;4.442;2023-04-01T23:29:18;41.10;;;21.10;;
23608;SDS011;11982;50.810;4.442;2023-04-01T23:31:47;44.75;;;23.55;;
23608;SDS011;11982;50.810;4.442;2023-04-01T23:44:56;48.40;;;23.65;;
23608;SDS011;11982;50.810;4.442;2023-04-01T23:47:45;44.88;;;24.13;;
23608;SDS011;11982;50.810;4.442;2023-04-01T23:50:17;55.65;;;28.42;;
23608;SDS011;11982;50.810;4.442;2023-04-01T23:58:06;48.97;;;23.70;;
